Time;durP1;ratioP1;P1;durP2;ratioP2;P2;SDS_P1;SDS_P2;PMS_P1;PMS_P2;Temp;Humidity;BMP_temperature;BMP_pressure;BME280_temperature;BME280_humidity;BME280_pressure;Samples;Min_cycle;Max_cycle;Signal;HPM_P1;HPM_P2
2021/08/14 00:01:37;;;;;;;8.17;6.37;;;22.50;99.90;;;;;;5074117;28;20454;-74
2021/08/14 00:04:06;;;;;;;6.90;5.90;;;22.40;99.90;;;;;;5077909;28;20949;-74
2021/08/14 00:06:34;;;;;;;6.80;6.17;;;22.40;99.90;;;;;;5078036;28;20898;-74
2021/08/14 00:09:04;;;;;;;6.30;5.27;;;22.40;99.90;;;;;;5077576;28;20458;-73
2021/08/14 00:11:31;;;;;;;11.80;6.80;;;22.40;99.90;;;;;;5077853;28;20458;-74
2021/08/14 00:13:57;;;;;;;6.30;5.70;;;22.30;99.90;;;;;;5077576;28;20465;-74
2021/08/14 00:16:26;;;;;;;5.57;5.07;;;22.30;99.90;;;;;;5077341;28;20458;-74
2021/08/14 00:18:54;;;;;;;5.63;5.10;;;22.30;99.90;;;;;;5077134;28;20497;-74
2021/08/14 00:21:23;;;;;;;6.00;5.40;;;22.30;99.90;;;;;;5077495;28;20458;-74
2021/08/14 00:23:49;;;;;;;6.43;5.83;;;22.20;99.90;;;;;;5076920;28;20487;-74
2021/08/14 00:26:20;;;;;;;5.77;5.27;;;22.20;99.90;;;;;;5077369;28;20859;-74
2021/08/14 00:28:46;;;;;;;11.97;6.20;;;22.10;99.90;;;;;;5077814;28;20793;-74
2021/08/14 00:31:14;;;;;;;5.53;5.03;;;22.10;99.90;;;;;;5077425;28;20450;-74
2021/08/14 00:33:42;;;;;;;6.70;6.00;;;22.10;99.90;;;;;;5076911;28;20465;-74
2021/08/14 00:36:10;;;;;;;7.30;5.23;;;22.00;99.90;;;;;;5077106;28;20469;-73
2021/08/14 00:38:37;;;;;;;13.63;5.90;;;22.00;99.90;;;;;;5077202;28;20459;-73
2021/08/14 00:41:04;;;;;;;6.30;5.63;;;21.90;99.90;;;;;;5077262;28;20572;-73
2021/08/14 00:43:32;;;;;;;6.57;5.20;;;21.90;99.90;;;;;;5076634;28;20458;-73
2021/08/14 00:46:00;;;;;;;7.53;5.17;;;21.90;99.90;;;;;;5076847;28;20458;-74
2021/08/14 00:48:27;;;;;;;5.83;5.00;;;21.90;99.90;;;;;;5076691;28;20466;-72
2021/08/14 00:50:55;;;;;;;8.17;5.80;;;21.80;99.90;;;;;;5077086;28;20739;-74
2021/08/14 00:53:27;;;;;;;7.50;5.00;;;21.80;99.90;;;;;;5076298;28;20458;-73
2021/08/14 00:55:55;;;;;;;7.77;4.90;;;21.80;99.90;;;;;;5076979;28;20439;-74
2021/08/14 00:58:22;;;;;;;10.43;5.37;;;21.60;99.90;;;;;;5076351;28;20454;-74
2021/08/14 01:00:50;;;;;;;7.20;5.10;;;21.60;99.90;;;;;;5076776;28;20454;-74
2021/08/14 01:03:18;;;;;;;6.30;4.90;;;21.60;99.90;;;;;;5076245;28;20464;-74
2021/08/14 01:05:47;;;;;;;5.23;4.40;;;21.50;99.90;;;;;;5076444;28;20478;-74
2021/08/14 01:08:16;;;;;;;5.37;4.87;;;21.50;99.90;;;;;;5076449;28;20784;-74
2021/08/14 01:10:45;;;;;;;7.30;4.70;;;21.40;99.90;;;;;;5076332;28;20478;-74
2021/08/14 01:13:12;;;;;;;6.20;5.20;;;21.40;99.90;;;;;;5075028;28;20533;-74
2021/08/14 01:15:41;;;;;;;7.70;5.00;;;21.30;99.90;;;;;;5075991;28;20466;-74
2021/08/14 01:18:12;;;;;;;10.37;5.27;;;21.30;99.90;;;;;;5075813;28;20462;-74
2021/08/14 01:20:41;;;;;;;6.90;5.53;;;21.20;99.90;;;;;;5076515;28;20514;-74
2021/08/14 01:23:09;;;;;;;7.13;6.00;;;21.10;99.90;;;;;;5076099;28;20494;-74
2021/08/14 01:25:35;;;;;;;6.53;5.30;;;21.10;99.90;;;;;;5075877;28;20485;-75
2021/08/14 01:28:08;;;;;;;5.33;4.83;;;21.00;99.90;;;;;;5076219;28;20760;-75
2021/08/14 01:30:36;;;;;;;5.63;5.07;;;21.00;99.90;;;;;;5076232;28;20512;-74
2021/08/14 01:33:03;;;;;;;6.70;5.30;;;21.00;99.90;;;;;;5076377;28;20465;-73
2021/08/14 01:35:35;;;;;;;5.93;5.43;;;20.90;99.90;;;;;;5075935;28;20553;-73
2021/08/14 01:38:03;;;;;;;6.13;5.30;;;20.90;99.90;;;;;;5075907;28;20455;-73
2021/08/14 01:40:30;;;;;;;6.10;5.07;;;20.90;99.90;;;;;;5075166;28;20482;-74
2021/08/14 01:42:58;;;;;;;6.80;5.40;;;20.90;99.90;;;;;;5075548;28;20985;-73
2021/08/14 01:45:26;;;;;;;7.30;5.60;;;20.80;99.90;;;;;;5075986;28;20478;-74
2021/08/14 01:47:54;;;;;;;8.00;5.33;;;20.80;99.90;;;;;;5075524;28;20526;-73
2021/08/14 01:50:21;;;;;;;8.07;5.60;;;20.70;99.90;;;;;;5075858;28;20450;-73
2021/08/14 01:52:48;;;;;;;6.03;5.43;;;20.70;99.90;;;;;;5076102;28;20488;-73
2021/08/14 01:55:14;;;;;;;5.77;5.20;;;20.70;99.90;;;;;;5075380;28;20455;-73
2021/08/14 01:57:42;;;;;;;6.87;5.93;;;20.70;99.90;;;;;;5075403;28;20545;-73
2021/08/14 02:00:10;;;;;;;7.00;5.43;;;20.70;99.90;;;;;;5075094;28;20458;-74
2021/08/14 02:02:38;;;;;;;6.23;4.63;;;20.60;99.90;;;;;;5075452;28;20458;-73
2021/08/14 02:05:08;;;;;;;6.90;4.03;;;20.60;99.90;;;;;;5075446;28;20536;-73
2021/08/14 02:07:35;;;;;;;10.13;5.00;;;20.50;99.90;;;;;;5074910;28;20512;-73
2021/08/14 02:10:02;;;;;;;4.60;3.80;;;20.50;99.90;;;;;;5075206;28;20764;-73
2021/08/14 02:12:28;;;;;;;7.13;4.60;;;20.50;99.90;;;;;;5075220;28;20458;-73
2021/08/14 02:14:57;;;;;;;8.97;4.63;;;20.40;99.90;;;;;;5074851;28;20454;-73
2021/08/14 02:17:24;;;;;;;5.43;4.53;;;20.40;99.90;;;;;;5075083;28;20458;-73
2021/08/14 02:19:54;;;;;;;7.40;4.40;;;20.40;99.90;;;;;;5075443;28;20464;-74
2021/08/14 02:22:21;;;;;;;9.10;4.33;;;20.30;99.90;;;;;;5075203;28;20906;-73
2021/08/14 02:24:49;;;;;;;5.70;4.40;;;20.30;99.90;;;;;;5075053;28;20763;-73
2021/08/14 02:27:15;;;;;;;6.90;5.23;;;20.20;99.90;;;;;;5075027;28;20454;-73
2021/08/14 02:29:42;;;;;;;6.03;5.40;;;20.30;99.90;;;;;;5075597;28;20469;-73
2021/08/14 02:32:10;;;;;;;6.30;4.83;;;20.20;99.90;;;;;;5075443;28;20542;-73
2021/08/14 02:34:38;;;;;;;7.43;4.83;;;20.30;99.90;;;;;;5075699;28;20450;-74
2021/08/14 02:37:06;;;;;;;7.20;5.13;;;20.30;99.90;;;;;;5074953;28;20450;-73
2021/08/14 02:39:33;;;;;;;7.77;5.40;;;20.30;99.90;;;;;;5074489;28;20492;-73
2021/08/14 02:42:01;;;;;;;8.10;5.00;;;20.30;99.90;;;;;;5074967;28;20442;-74
2021/08/14 02:44:28;;;;;;;10.70;5.80;;;20.20;99.90;;;;;;5074218;28;20482;-73
2021/08/14 02:46:55;;;;;;;11.03;5.57;;;20.20;99.90;;;;;;5075022;28;20465;-74
2021/08/14 02:49:21;;;;;;;7.17;5.10;;;20.20;99.90;;;;;;5074360;28;20458;-73
2021/08/14 02:51:48;;;;;;;9.63;6.30;;;20.20;99.90;;;;;;5075040;28;20458;-73
2021/08/14 02:54:16;;;;;;;7.27;5.87;;;20.20;99.90;;;;;;5074656;28;20464;-74
2021/08/14 02:56:43;;;;;;;12.87;6.03;;;20.20;99.90;;;;;;5075206;28;20458;-73
2021/08/14 02:59:13;;;;;;;7.57;4.77;;;20.20;99.90;;;;;;5075249;28;20477;-74
2021/08/14 03:01:40;;;;;;;7.20;4.80;;;20.20;99.90;;;;;;5075067;28;20519;-73
2021/08/14 03:04:06;;;;;;;10.07;5.10;;;20.10;99.90;;;;;;5073897;28;20460;-73
2021/08/14 03:06:33;;;;;;;6.20;4.10;;;20.10;99.90;;;;;;5074471;28;20929;-73
2021/08/14 03:09:02;;;;;;;8.90;5.00;;;20.00;99.90;;;;;;5074445;28;20462;-73
2021/08/14 03:11:30;;;;;;;8.77;5.27;;;20.00;99.90;;;;;;5074424;28;20582;-73
2021/08/14 03:13:57;;;;;;;6.80;4.50;;;19.90;99.90;;;;;;5074305;28;20799;-74
2021/08/14 03:16:23;;;;;;;7.90;4.40;;;19.90;99.90;;;;;;5073688;28;20461;-73
2021/08/14 03:18:52;;;;;;;9.40;4.37;;;19.90;99.90;;;;;;5074655;28;20462;-74
2021/08/14 03:21:18;;;;;;;6.43;4.23;;;19.80;99.90;;;;;;5073875;28;20469;-73
2021/08/14 03:23:46;;;;;;;8.93;4.40;;;19.90;99.90;;;;;;5074861;28;20464;-73
2021/08/14 03:26:14;;;;;;;6.60;3.97;;;19.90;99.90;;;;;;5074189;28;20851;-73
2021/08/14 03:28:42;;;;;;;9.93;4.70;;;19.90;99.90;;;;;;5073994;28;20472;-73
2021/08/14 03:31:11;;;;;;;7.00;4.37;;;19.80;99.90;;;;;;5074053;28;20458;-74
2021/08/14 03:33:40;;;;;;;8.90;4.40;;;19.80;99.90;;;;;;5074347;28;20453;-73
2021/08/14 03:36:08;;;;;;;7.20;4.70;;;19.70;99.90;;;;;;5074053;28;20455;-73
2021/08/14 03:38:36;;;;;;;9.13;4.60;;;19.70;99.90;;;;;;5077268;28;20454;-73
2021/08/14 03:41:05;;;;;;;4.80;3.93;;;19.60;99.90;;;;;;5078064;28;20791;-73
2021/08/14 03:43:31;;;;;;;9.63;4.13;;;19.60;99.90;;;;;;5077961;28;20454;-73
2021/08/14 03:46:01;;;;;;;6.77;4.50;;;19.60;99.90;;;;;;5078137;28;20512;-73
2021/08/14 03:48:28;;;;;;;14.03;4.73;;;19.60;99.90;;;;;;5077683;28;20454;-70
2021/08/14 03:50:54;;;;;;;6.17;4.17;;;19.60;99.90;;;;;;5077915;28;20956;-70
2021/08/14 03:53:23;;;;;;;5.63;3.93;;;19.60;99.90;;;;;;5077745;28;20454;-72
2021/08/14 03:55:50;;;;;;;15.60;4.90;;;19.60;99.90;;;;;;5078408;28;20529;-71
2021/08/14 03:58:17;;;;;;;6.10;4.07;;;19.60;99.90;;;;;;5078007;28;20453;-71
2021/08/14 04:00:43;;;;;;;8.30;4.57;;;19.60;99.90;;;;;;5077506;28;20454;-71
2021/08/14 04:03:13;;;;;;;9.93;4.23;;;19.50;99.90;;;;;;5078076;28;20489;-70
2021/08/14 04:05:40;;;;;;;11.20;4.57;;;19.50;99.90;;;;;;5077703;28;20484;-70
2021/08/14 04:08:09;;;;;;;9.23;4.40;;;19.50;99.90;;;;;;5077701;28;20465;-70
2021/08/14 04:10:36;;;;;;;9.00;4.10;;;19.50;99.90;;;;;;5077848;28;20486;-71
2021/08/14 04:13:04;;;;;;;9.00;4.97;;;19.50;99.90;;;;;;5077803;28;20464;-71
2021/08/14 04:15:32;;;;;;;7.67;4.00;;;19.50;99.90;;;;;;5077871;28;20461;-71
2021/08/14 04:18:00;;;;;;;9.93;5.10;;;19.50;99.90;;;;;;5077476;28;20458;-71
2021/08/14 04:20:33;;;;;;;6.80;3.80;;;19.50;99.90;;;;;;5077437;28;20454;-71
2021/08/14 04:23:00;;;;;;;4.70;3.20;;;19.50;99.90;;;;;;5078138;28;20517;-71
2021/08/14 04:25:26;;;;;;;8.73;4.33;;;19.50;99.90;;;;;;5077238;28;20504;-71
2021/08/14 04:27:56;;;;;;;11.73;3.70;;;19.50;99.90;;;;;;5077651;28;20462;-71
2021/08/14 04:30:24;;;;;;;6.30;3.30;;;19.50;99.90;;;;;;5078345;28;20464;-71
2021/08/14 04:32:51;;;;;;;10.87;3.90;;;19.50;99.90;;;;;;5077936;28;20453;-71
2021/08/14 04:35:18;;;;;;;9.20;3.70;;;19.50;99.90;;;;;;5077015;28;20458;-71
2021/08/14 04:37:46;;;;;;;7.13;3.87;;;19.50;99.90;;;;;;5077336;28;20458;-71
2021/08/14 04:40:17;;;;;;;15.00;3.80;;;19.40;99.90;;;;;;5076462;28;20573;-71
2021/08/14 04:42:44;;;;;;;7.40;3.00;;;19.30;99.90;;;;;;5077462;28;20458;-71
2021/08/14 04:45:12;;;;;;;14.43;3.60;;;19.30;99.90;;;;;;5076856;28;20504;-71
2021/08/14 04:47:41;;;;;;;9.03;3.60;;;19.30;99.90;;;;;;5076729;28;20471;-71
2021/08/14 04:50:10;;;;;;;12.53;4.60;;;19.30;99.90;;;;;;5076197;28;20490;-71
2021/08/14 04:52:36;;;;;;;11.43;3.53;;;19.30;99.90;;;;;;5077309;28;20458;-71
2021/08/14 04:55:05;;;;;;;12.30;3.50;;;19.30;99.90;;;;;;5076565;28;20454;-71
2021/08/14 04:57:33;;;;;;;10.33;3.90;;;19.30;99.90;;;;;;5076968;28;20464;-71
2021/08/14 05:00:00;;;;;;;10.20;3.20;;;19.30;99.90;;;;;;5076763;28;20458;-71
2021/08/14 05:02:27;;;;;;;7.50;3.10;;;19.30;99.90;;;;;;5077019;28;20472;-71
2021/08/14 05:04:53;;;;;;;7.77;3.60;;;19.30;99.90;;;;;;5076923;28;20784;-71
2021/08/14 05:07:20;;;;;;;9.73;3.70;;;19.30;99.90;;;;;;5076319;28;20459;-71
2021/08/14 05:09:47;;;;;;;9.63;3.50;;;19.40;99.90;;;;;;5076387;28;20458;-71
2021/08/14 05:12:15;;;;;;;8.37;3.27;;;19.30;99.90;;;;;;5077383;28;20472;-71
2021/08/14 05:14:43;;;;;;;12.17;3.40;;;19.30;99.90;;;;;;5077293;28;20477;-71
2021/08/14 05:17:13;;;;;;;12.17;4.30;;;19.30;99.90;;;;;;5076689;28;20915;-71
2021/08/14 05:19:42;;;;;;;6.00;3.40;;;19.30;99.90;;;;;;5076721;28;20458;-71
2021/08/14 05:22:09;;;;;;;10.23;4.10;;;19.30;99.90;;;;;;5076781;28;20454;-71
2021/08/14 05:24:42;;;;;;;7.70;3.53;;;19.30;99.90;;;;;;5076861;28;20450;-71
2021/08/14 05:27:10;;;;;;;9.97;4.30;;;19.30;99.90;;;;;;5076437;28;20462;-71
2021/08/14 05:29:40;;;;;;;9.83;4.77;;;19.40;99.90;;;;;;5076344;28;20468;-72
2021/08/14 05:32:08;;;;;;;7.97;3.53;;;19.50;99.90;;;;;;5076378;28;20446;-71
2021/08/14 05:34:35;;;;;;;6.53;3.67;;;19.50;99.90;;;;;;5076302;28;20497;-71
2021/08/14 05:37:02;;;;;;;9.20;4.03;;;19.50;99.90;;;;;;5076705;28;20564;-71
2021/08/14 05:39:29;;;;;;;5.33;3.13;;;19.50;99.90;;;;;;5076402;28;20454;-71
2021/08/14 05:41:56;;;;;;;4.60;3.07;;;19.60;99.90;;;;;;5076784;28;20449;-71
2021/08/14 05:44:25;;;;;;;6.00;3.63;;;19.60;99.90;;;;;;5076407;28;20840;-71
2021/08/14 05:46:53;;;;;;;8.83;4.10;;;19.60;99.90;;;;;;5076341;28;20485;-70
2021/08/14 05:49:22;;;;;;;6.10;3.63;;;19.50;99.90;;;;;;5076163;28;20739;-71
2021/08/14 05:51:50;;;;;;;6.63;4.13;;;19.60;99.90;;;;;;5076431;28;20465;-71
2021/08/14 05:54:17;;;;;;;5.47;3.77;;;19.60;99.90;;;;;;5076168;28;20454;-71
2021/08/14 05:56:46;;;;;;;8.50;4.10;;;19.70;99.90;;;;;;5076194;28;20451;-71
2021/08/14 05:59:14;;;;;;;7.50;4.60;;;19.70;99.90;;;;;;5075851;28;20607;-71
2021/08/14 06:05:06;;;;;;;7.63;3.90;;;19.90;99.90;;;;;;5074479;28;20442;-71
2021/08/14 06:07:34;;;;;;;7.93;3.80;;;20.00;99.90;;;;;;5075475;28;20464;-71
2021/08/14 06:10:02;;;;;;;8.30;3.80;;;20.00;99.90;;;;;;5075578;28;20787;-73
2021/08/14 06:12:29;;;;;;;7.20;4.13;;;20.10;99.90;;;;;;5074598;28;20455;-73
2021/08/14 06:14:55;;;;;;;8.07;4.23;;;20.10;99.90;;;;;;5075330;28;20462;-73
2021/08/14 06:17:22;;;;;;;11.13;5.40;;;20.20;99.90;;;;;;5075326;28;20483;-73
2021/08/14 06:19:49;;;;;;;6.80;4.07;;;20.30;99.90;;;;;;5074980;28;20782;-73
2021/08/14 06:22:20;;;;;;;10.17;3.93;;;20.40;99.90;;;;;;5075249;28;20788;-72
2021/08/14 06:24:50;;;;;;;6.13;4.20;;;20.50;99.90;;;;;;5075137;28;20761;-73
2021/08/14 06:27:17;;;;;;;7.87;4.27;;;20.60;99.90;;;;;;5075279;28;20466;-73
2021/08/14 06:29:44;;;;;;;6.97;4.33;;;20.70;99.90;;;;;;5075332;28;20454;-73
2021/08/14 06:32:11;;;;;;;11.00;4.47;;;20.80;99.90;;;;;;5074650;28;20895;-72
2021/08/14 06:34:40;;;;;;;8.00;3.97;;;20.80;99.90;;;;;;5075022;28;20458;-73
2021/08/14 06:37:07;;;;;;;6.57;4.03;;;20.80;99.90;;;;;;5074213;28;20454;-74
2021/08/14 06:39:35;;;;;;;10.63;4.30;;;20.80;99.90;;;;;;5074927;28;20481;-73
2021/08/14 06:42:02;;;;;;;6.73;3.47;;;20.80;99.90;;;;;;5075251;28;20517;-73
2021/08/14 06:44:29;;;;;;;8.07;3.17;;;20.80;99.90;;;;;;5075339;28;20470;-72
2021/08/14 06:46:57;;;;;;;6.70;3.60;;;20.80;99.90;;;;;;5075590;28;20462;-72
2021/08/14 06:49:23;;;;;;;8.13;3.90;;;20.80;99.90;;;;;;5074654;28;20466;-73
2021/08/14 06:51:56;;;;;;;8.00;3.63;;;20.80;99.90;;;;;;5074930;28;20454;-72
2021/08/14 06:54:23;;;;;;;6.17;3.77;;;20.80;99.90;;;;;;5075052;28;20458;-73
2021/08/14 06:56:51;;;;;;;8.20;3.90;;;20.80;99.90;;;;;;5074822;28;20756;-73
2021/08/14 06:59:18;;;;;;;7.80;3.93;;;20.90;99.90;;;;;;5074967;28;20462;-73
2021/08/14 07:01:45;;;;;;;5.87;3.57;;;20.90;99.90;;;;;;5073427;28;20933;-73
2021/08/14 07:04:12;;;;;;;6.60;2.87;;;21.00;99.90;;;;;;5073253;28;20454;-73
2021/08/14 07:06:39;;;;;;;8.10;3.47;;;21.00;99.90;;;;;;5073871;28;20474;-73
2021/08/14 07:09:08;;;;;;;7.17;3.47;;;21.00;99.90;;;;;;5073455;28;20485;-73
2021/08/14 07:11:35;;;;;;;11.30;3.30;;;21.00;99.90;;;;;;5072989;28;20480;-72
2021/08/14 07:14:03;;;;;;;5.90;3.27;;;21.00;99.90;;;;;;5073619;28;20837;-73
2021/08/14 07:16:30;;;;;;;6.57;3.77;;;20.90;99.90;;;;;;5073707;28;20460;-73
2021/08/14 07:18:59;;;;;;;8.23;3.80;;;20.90;99.90;;;;;;5074480;28;20505;-73
2021/08/14 07:21:26;;;;;;;4.93;3.13;;;20.90;99.90;;;;;;5074396;28;20476;-74
2021/08/14 07:23:55;;;;;;;8.43;3.47;;;20.80;99.90;;;;;;5074378;28;20579;-74
2021/08/14 07:26:23;;;;;;;6.93;3.40;;;20.80;99.90;;;;;;5074515;28;20478;-73
2021/08/14 07:28:50;;;;;;;7.43;2.93;;;20.70;99.90;;;;;;5073603;28;20826;-74
2021/08/14 07:31:18;;;;;;;7.70;3.23;;;20.70;99.90;;;;;;5074370;28;20554;-73
2021/08/14 07:33:45;;;;;;;10.60;3.17;;;20.70;99.90;;;;;;5074074;28;20454;-73
2021/08/14 07:36:12;;;;;;;9.47;4.60;;;20.60;99.90;;;;;;5074365;28;20464;-73
2021/08/14 07:38:41;;;;;;;6.63;3.10;;;20.60;99.90;;;;;;5074189;28;20943;-73
2021/08/14 07:41:08;;;;;;;7.73;2.80;;;20.60;99.90;;;;;;5074152;28;20477;-73
2021/08/14 07:43:34;;;;;;;6.13;3.10;;;20.60;99.90;;;;;;5073495;28;20852;-73
2021/08/14 07:46:01;;;;;;;4.67;2.93;;;20.60;99.90;;;;;;5073886;28;20478;-73
2021/08/14 07:48:30;;;;;;;6.77;3.30;;;20.70;99.90;;;;;;5073641;28;20919;-74
2021/08/14 07:50:56;;;;;;;4.97;2.83;;;20.90;99.90;;;;;;5073696;28;20484;-74
2021/08/14 07:53:23;;;;;;;8.57;3.40;;;21.00;99.90;;;;;;5073286;28;20979;-73
2021/08/14 07:55:50;;;;;;;7.97;2.73;;;21.10;99.90;;;;;;5073651;28;20821;-74
2021/08/14 07:58:17;;;;;;;5.70;2.47;;;21.10;99.90;;;;;;5073982;28;20519;-74
2021/08/14 08:00:44;;;;;;;4.23;2.73;;;21.20;99.90;;;;;;5074491;28;20465;-74
2021/08/14 08:03:11;;;;;;;5.83;2.73;;;21.30;99.90;;;;;;5075015;28;20939;-74
2021/08/14 08:05:43;;;;;;;4.60;2.67;;;21.40;99.90;;;;;;5075110;28;20458;-73
2021/08/14 08:08:09;;;;;;;3.80;2.63;;;21.50;99.90;;;;;;5074862;28;20443;-74
2021/08/14 08:10:37;;;;;;;4.00;2.50;;;21.50;99.90;;;;;;5074894;28;20462;-73
2021/08/14 08:13:04;;;;;;;5.93;3.07;;;21.50;99.90;;;;;;5075111;28;20454;-73
2021/08/14 08:15:31;;;;;;;6.43;3.23;;;21.60;99.90;;;;;;5074266;28;20458;-74
2021/08/14 08:18:01;;;;;;;8.57;3.87;;;21.60;99.90;;;;;;5074256;28;20454;-73
2021/08/14 08:20:27;;;;;;;8.13;2.67;;;21.70;99.90;;;;;;5074967;28;20562;-74
2021/08/14 08:22:56;;;;;;;5.00;2.73;;;21.80;99.90;;;;;;5074983;28;20450;-72
2021/08/14 08:25:24;;;;;;;4.20;2.70;;;21.90;99.90;;;;;;5077793;28;20552;-73
2021/08/14 08:27:51;;;;;;;5.13;3.13;;;21.90;99.90;;;;;;5077920;28;20478;-73
2021/08/14 08:30:20;;;;;;;8.87;3.13;;;22.00;99.90;;;;;;5078149;28;20468;-73
2021/08/14 08:32:47;;;;;;;7.10;3.13;;;22.00;99.90;;;;;;5077245;28;20548;-73
2021/08/14 08:35:14;;;;;;;5.23;3.00;;;22.00;99.90;;;;;;5077239;28;20545;-73
2021/08/14 08:37:41;;;;;;;5.33;2.63;;;22.00;99.90;;;;;;5077083;28;20454;-73
2021/08/14 08:40:11;;;;;;;5.80;3.30;;;22.00;99.90;;;;;;5077307;28;20509;-73
2021/08/14 08:42:38;;;;;;;7.07;3.13;;;22.10;99.90;;;;;;5077400;28;20465;-73
2021/08/14 08:45:05;;;;;;;5.97;2.97;;;22.20;99.90;;;;;;5077185;28;20458;-73
2021/08/14 08:47:34;;;;;;;4.40;2.60;;;22.20;99.90;;;;;;5078126;28;20812;-72
2021/08/14 08:50:01;;;;;;;5.20;3.50;;;22.30;99.90;;;;;;5077735;28;20470;-72
2021/08/14 08:52:28;;;;;;;4.87;2.83;;;22.30;99.90;;;;;;5077608;28;20543;-73
2021/08/14 08:54:55;;;;;;;11.97;3.87;;;22.30;99.90;;;;;;5077539;28;20468;-73
2021/08/14 08:57:25;;;;;;;6.60;2.80;;;22.30;99.90;;;;;;5077669;28;20564;-73
2021/08/14 08:59:52;;;;;;;7.83;3.07;;;22.30;99.90;;;;;;5077833;28;20545;-73
2021/08/14 09:02:24;;;;;;;4.57;2.70;;;22.40;99.90;;;;;;5077433;28;20468;-73
2021/08/14 09:05:09;;;;;;;10.23;2.63;;;22.50;99.90;;;;;;5077369;28;20462;-73
2021/08/14 09:07:36;;;;;;;5.93;3.23;;;22.50;99.90;;;;;;5077081;28;20462;-74
2021/08/14 09:10:05;;;;;;;6.43;3.00;;;22.50;99.90;;;;;;5077968;28;20614;-73
2021/08/14 09:12:38;;;;;;;6.37;2.50;;;22.60;99.90;;;;;;5077183;28;20460;-73
2021/08/14 09:15:07;;;;;;;4.77;2.70;;;22.50;99.90;;;;;;5078000;28;20496;-74
2021/08/14 09:17:34;;;;;;;4.83;2.60;;;22.50;99.90;;;;;;5078449;28;20458;-73
2021/08/14 09:20:09;;;;;;;5.40;2.87;;;22.50;99.90;;;;;;5079171;28;20458;-74
2021/08/14 09:22:36;;;;;;;8.50;3.00;;;22.40;99.90;;;;;;5080060;28;20457;-74
2021/08/14 09:25:37;;;;;;;7.37;3.00;;;22.60;99.90;;;;;;5079544;28;20462;-74
2021/08/14 09:28:08;;;;;;;5.80;2.77;;;22.70;99.90;;;;;;5068803;28;20974;-73
2021/08/14 09:30:52;;;;;;;4.50;2.70;;;22.70;99.90;;;;;;5080417;28;20525;-74
2021/08/14 09:33:21;;;;;;;5.43;3.10;;;22.80;99.90;;;;;;5079560;28;20457;-74
2021/08/14 09:35:54;;;;;;;4.93;3.50;;;22.90;99.90;;;;;;5077562;28;20454;-74
2021/08/14 09:38:21;;;;;;;7.03;3.00;;;23.20;99.90;;;;;;5078714;28;20461;-73
2021/08/14 09:40:48;;;;;;;4.83;3.00;;;23.40;99.90;;;;;;5079506;28;20603;-73
2021/08/14 09:43:33;;;;;;;5.90;3.30;;;23.40;99.90;;;;;;5079137;28;20465;-73
2021/08/14 09:46:02;;;;;;;5.33;3.00;;;23.40;99.90;;;;;;5080825;28;20443;-74
2021/08/14 09:48:29;;;;;;;8.63;2.63;;;23.30;99.90;;;;;;5080211;28;20482;-74
2021/08/14 09:50:57;;;;;;;7.00;3.13;;;23.20;99.90;;;;;;5081561;28;20442;-74
2021/08/14 09:53:25;;;;;;;4.20;2.73;;;23.20;99.90;;;;;;5081812;28;20465;-73
2021/08/14 09:56:05;;;;;;;6.33;2.93;;;23.20;99.90;;;;;;5080777;28;20459;-74
2021/08/14 09:58:33;;;;;;;7.40;2.90;;;23.30;99.90;;;;;;5077466;28;20438;-73
2021/08/14 10:01:01;;;;;;;4.83;3.00;;;23.40;99.90;;;;;;5076462;28;20458;-74
2021/08/14 10:03:29;;;;;;;6.30;3.20;;;23.40;99.90;;;;;;5077714;28;20453;-74
2021/08/14 10:05:58;;;;;;;6.53;2.90;;;23.40;99.90;;;;;;5076877;28;20494;-73
2021/08/14 10:08:25;;;;;;;4.00;2.73;;;23.40;99.90;;;;;;5075919;28;20478;-74
2021/08/14 10:10:52;;;;;;;3.30;2.40;;;23.50;99.90;;;;;;5075196;28;20473;-72
2021/08/14 10:13:20;;;;;;;8.27;2.67;;;23.60;99.90;;;;;;5075302;28;20474;-72
2021/08/14 10:15:54;;;;;;;6.10;3.60;;;23.70;99.90;;;;;;5075097;28;20485;-73
2021/08/14 10:18:21;;;;;;;8.00;2.37;;;23.90;99.90;;;;;;5074593;28;20446;-73
2021/08/14 10:20:48;;;;;;;5.67;2.40;;;23.90;99.90;;;;;;5074870;28;20458;-72
2021/08/14 10:23:20;;;;;;;9.73;3.20;;;23.90;99.90;;;;;;5075299;28;20527;-73
2021/08/14 10:25:49;;;;;;;5.53;2.77;;;23.80;99.90;;;;;;5075114;28;20454;-72
2021/08/14 10:28:16;;;;;;;10.33;3.90;;;23.80;99.90;;;;;;5074748;28;20584;-72
2021/08/14 10:30:49;;;;;;;4.27;2.63;;;23.80;99.90;;;;;;5075170;28;20454;-73
2021/08/14 10:33:37;;;;;;;10.53;2.70;;;23.90;99.90;;;;;;5075171;28;20534;-73
2021/08/14 10:36:40;;;;;;;6.07;3.00;;;24.00;99.90;;;;;;5075402;28;20439;-72
2021/08/14 10:39:22;;;;;;;4.77;2.47;;;24.00;99.90;;;;;;5075182;28;20780;-72
2021/08/14 10:41:52;;;;;;;6.00;2.50;;;24.00;99.90;;;;;;5075466;28;20912;-72
2021/08/14 10:44:39;;;;;;;4.60;2.57;;;24.00;99.90;;;;;;5075071;28;20454;-72
2021/08/14 10:47:27;;;;;;;3.57;2.70;;;24.10;99.90;;;;;;5074147;28;20528;-72
2021/08/14 10:49:55;;;;;;;4.77;2.93;;;24.00;99.90;;;;;;5074170;28;20509;-73
2021/08/14 10:52:32;;;;;;;4.80;2.53;;;24.10;99.90;;;;;;5074549;28;20458;-73
2021/08/14 10:55:11;;;;;;;4.67;2.87;;;24.20;99.90;;;;;;5075010;28;20438;-73
2021/08/14 10:57:49;;;;;;;4.93;2.57;;;24.30;99.90;;;;;;5074996;28;20444;-73
2021/08/14 11:00:18;;;;;;;3.70;2.50;;;24.40;99.90;;;;;;5075287;28;20493;-73
2021/08/14 11:03:09;;;;;;;4.87;2.67;;;24.40;99.90;;;;;;5074781;28;20458;-73
2021/08/14 11:05:40;;;;;;;6.07;2.97;;;24.40;99.90;;;;;;5074643;28;20443;-73
2021/08/14 11:08:25;;;;;;;3.10;2.67;;;24.60;99.90;;;;;;5075439;28;20764;-73
2021/08/14 11:10:54;;;;;;;6.30;2.77;;;24.60;99.90;;;;;;5074209;28;20458;-73
2021/08/14 11:13:42;;;;;;;3.60;2.80;;;24.70;99.90;;;;;;5074511;28;20465;-73
2021/08/14 11:16:42;;;;;;;3.97;2.60;;;24.80;99.90;;;;;;5074646;28;20789;-73
2021/08/14 11:19:11;;;;;;;3.30;2.80;;;25.00;99.90;;;;;;5074038;28;20454;-73
2021/08/14 11:21:44;;;;;;;5.50;2.73;;;25.10;99.90;;;;;;5074327;28;20458;-72
2021/08/14 11:24:35;;;;;;;7.43;2.60;;;25.30;99.90;;;;;;5074599;28;20454;-73
2021/08/14 11:27:02;;;;;;;5.73;2.60;;;25.60;99.90;;;;;;5075244;28;20526;-72
2021/08/14 11:29:30;;;;;;;2.50;2.27;;;25.80;99.90;;;;;;5074752;28;20458;-72
2021/08/14 11:31:57;;;;;;;4.83;2.40;;;26.00;99.90;;;;;;5074694;28;20476;-72
2021/08/14 11:34:25;;;;;;;6.07;2.40;;;25.90;99.90;;;;;;5074213;28;20577;-73
2021/08/14 11:37:00;;;;;;;3.80;2.50;;;26.00;99.90;;;;;;5073936;28;20473;-73
2021/08/14 11:39:35;;;;;;;4.40;2.57;;;26.40;99.90;;;;;;5073631;28;20438;-73
2021/08/14 11:42:02;;;;;;;6.50;2.60;;;27.10;99.90;;;;;;5074032;28;20457;-72
2021/08/14 11:44:31;;;;;;;4.13;2.60;;;27.70;99.90;;;;;;5073996;28;20471;-73
2021/08/14 11:47:01;;;;;;;3.97;2.60;;;28.20;99.90;;;;;;5073963;28;20885;-72
2021/08/14 11:49:28;;;;;;;3.20;2.37;;;28.30;99.90;;;;;;5074244;28;20455;-73
2021/08/14 11:52:03;;;;;;;3.27;2.47;;;28.00;99.90;;;;;;5074416;28;20766;-72
2021/08/14 11:54:32;;;;;;;5.97;2.53;;;27.70;99.90;;;;;;5074426;28;20442;-73
2021/08/14 11:57:09;;;;;;;2.90;2.20;;;27.70;99.90;;;;;;5074807;28;20481;-72
2021/08/14 11:59:36;;;;;;;2.53;2.00;;;27.90;99.90;;;;;;5078846;28;20442;-72
2021/08/14 12:02:03;;;;;;;6.07;2.60;;;28.30;99.90;;;;;;5079551;28;20772;-73
2021/08/14 12:04:30;;;;;;;4.13;2.30;;;28.80;99.90;;;;;;5078788;28;20458;-74
2021/08/14 12:06:58;;;;;;;3.40;2.60;;;29.00;99.90;;;;;;5079270;28;20490;-73
2021/08/14 12:09:29;;;;;;;3.37;2.03;;;29.20;99.90;;;;;;5078713;28;20461;-73
2021/08/14 12:11:56;;;;;;;2.90;2.00;;;29.10;99.90;;;;;;5077989;28;20786;-73
2021/08/14 12:14:25;;;;;;;4.33;2.53;;;29.10;99.80;;;;;;5078036;28;20465;-72
2021/08/14 12:16:58;;;;;;;5.63;2.57;;;29.40;98.60;;;;;;5078153;28;20543;-73
2021/08/14 12:19:25;;;;;;;3.90;2.43;;;29.10;97.50;;;;;;5078138;28;20439;-73
2021/08/14 12:22:10;;;;;;;3.27;2.63;;;29.20;97.70;;;;;;5078590;28;20473;-73
2021/08/14 12:24:38;;;;;;;3.73;2.57;;;29.50;97.80;;;;;;5077956;28;20477;-73
2021/08/14 12:27:30;;;;;;;3.17;2.77;;;29.60;96.40;;;;;;5079126;28;20561;-73
2021/08/14 12:30:16;;;;;;;2.80;2.07;;;29.80;94.70;;;;;;5077603;28;20489;-73
2021/08/14 12:32:42;;;;;;;2.10;1.80;;;29.80;94.70;;;;;;5078455;28;20442;-73
2021/08/14 12:35:17;;;;;;;3.60;2.50;;;29.70;94.40;;;;;;5077971;28;20462;-73
2021/08/14 12:37:45;;;;;;;4.23;3.00;;;29.80;94.20;;;;;;5077889;28;20464;-73
2021/08/14 12:40:16;;;;;;;6.20;2.37;;;29.80;94.20;;;;;;5077114;28;20619;-73
2021/08/14 12:42:43;;;;;;;5.00;2.30;;;29.60;94.30;;;;;;5077702;28;20439;-73
2021/08/14 12:45:16;;;;;;;7.43;2.20;;;29.40;94.60;;;;;;5077781;28;20470;-73
2021/08/14 12:47:44;;;;;;;6.50;2.50;;;29.70;93.70;;;;;;5077772;28;20539;-72
2021/08/14 12:50:26;;;;;;;2.80;2.50;;;30.10;93.90;;;;;;5077276;28;20457;-73
2021/08/14 12:53:01;;;;;;;2.83;2.43;;;30.40;92.60;;;;;;5076845;28;20557;-72
2021/08/14 12:55:40;;;;;;;4.23;2.80;;;30.10;92.00;;;;;;5077127;28;20465;-72
2021/08/14 12:58:11;;;;;;;3.97;2.53;;;29.50;92.50;;;;;;5076574;28;20763;-72
2021/08/14 13:00:40;;;;;;;6.93;2.93;;;29.30;92.70;;;;;;5076546;28;20469;-71